createdAt,value
2018-05-13T00:00:52.669Z,100307
2018-05-13T00:05:56.285Z,100310
2018-05-13T00:10:59.414Z,100313
2018-05-13T00:16:02.510Z,100309
2018-05-13T00:21:06.407Z,100310
2018-05-13T00:26:10.277Z,100311
2018-05-13T00:31:14.554Z,100314
2018-05-13T00:36:18.901Z,100313
2018-05-13T00:41:22.754Z,100337
2018-05-13T00:46:25.827Z,100326
2018-05-13T00:51:29.674Z,100332
2018-05-13T00:56:32.757Z,100340
2018-05-13T01:01:37.193Z,100339
2018-05-13T01:06:41.051Z,100347
2018-05-13T01:11:44.141Z,100345
2018-05-13T01:16:48.591Z,100347
2018-05-13T01:21:51.766Z,100341
2018-05-13T01:26:56.054Z,100352
2018-05-13T01:31:59.238Z,100332
2018-05-13T01:37:02.799Z,100335
2018-05-13T01:42:05.910Z,100305
2018-05-13T01:47:09.031Z,100303
2018-05-13T01:52:13.469Z,100284
2018-05-13T01:57:17.330Z,100298
2018-05-13T02:02:21.765Z,100307
2018-05-13T02:07:25.997Z,100317
2018-05-13T02:12:29.897Z,100337
2018-05-13T02:17:34.586Z,100348
2018-05-13T02:22:37.769Z,100340
2018-05-13T02:27:40.939Z,100328
2018-05-13T02:32:44.129Z,100312
2018-05-13T02:37:48.637Z,100316
2018-05-13T02:42:52.499Z,100326
2018-05-13T02:47:56.940Z,100319
2018-05-13T02:53:00.204Z,100323
2018-05-13T02:58:03.728Z,100322
2018-05-13T03:03:07.572Z,100329
2018-05-13T03:08:10.759Z,100342
2018-05-13T03:13:15.017Z,100351
2018-05-13T03:18:18.105Z,100359
2018-05-13T03:23:21.957Z,100353
2018-05-13T03:28:25.030Z,100354
2018-05-13T03:33:28.906Z,100352
2018-05-13T03:38:32.016Z,100354
2018-05-13T03:43:35.090Z,100343
2018-05-13T03:48:38.941Z,100352
2018-05-13T03:53:43.510Z,100348
2018-05-13T03:58:48.326Z,100354
2018-05-13T04:03:52.111Z,100350
2018-05-13T04:09:13.307Z,100350
2018-05-13T04:14:35.272Z,100333
2018-05-13T04:19:38.745Z,100325
2018-05-13T04:24:42.718Z,100330
2018-05-13T04:29:45.819Z,100337
2018-05-13T04:34:48.992Z,100343
2018-05-13T04:39:52.599Z,100358
2018-05-13T04:44:56.087Z,100377
2018-05-13T04:50:00.337Z,100380
2018-05-13T04:55:03.454Z,100382
2018-05-13T05:00:07.947Z,100396
2018-05-13T05:05:12.259Z,100401
2018-05-13T05:10:15.429Z,100404
2018-05-13T05:15:19.287Z,100401
2018-05-13T05:20:22.374Z,100428
2018-05-13T05:25:25.455Z,100445
2018-05-13T05:30:29.354Z,100468
2018-05-13T05:35:32.837Z,100450
2018-05-13T05:40:37.262Z,100445
2018-05-13T05:45:40.343Z,100421
2018-05-13T05:50:44.240Z,100404
2018-05-13T05:55:48.114Z,100405
2018-05-13T06:00:51.202Z,100404
2018-05-13T06:05:55.043Z,100412
2018-05-13T06:10:58.132Z,100414
2018-05-13T06:16:01.599Z,100395
2018-05-13T06:21:05.071Z,100408
2018-05-13T06:26:08.918Z,100403
2018-05-13T06:31:13.514Z,100411
2018-05-13T06:36:17.360Z,100419
2018-05-13T06:41:21.835Z,100425
2018-05-13T06:46:25.683Z,100431
2018-05-13T06:51:28.823Z,100443
2018-05-13T06:56:31.855Z,100468
2018-05-13T07:01:36.377Z,100487
2018-05-13T07:06:40.887Z,100492
2018-05-13T07:11:43.961Z,100497
2018-05-13T07:16:47.046Z,100500
2018-05-13T07:21:51.314Z,100505
2018-05-13T07:26:55.167Z,100488
2018-05-13T07:31:58.256Z,100487
2018-05-13T07:37:02.698Z,100493
2018-05-13T07:42:06.613Z,100477
2018-05-13T07:47:11.042Z,100485
2018-05-13T07:52:14.918Z,100466
2018-05-13T07:57:19.349Z,100439
2018-05-13T08:02:22.855Z,100427
2018-05-13T08:07:25.954Z,100452
2018-05-13T08:12:29.818Z,100489
2018-05-13T08:17:34.811Z,100506
2018-05-13T08:22:39.250Z,100519
2018-05-13T08:27:43.686Z,100526
2018-05-13T08:32:47.176Z,100538
2018-05-13T08:37:51.037Z,100541
2018-05-13T08:42:54.204Z,100539
2018-05-13T08:47:58.074Z,100543
2018-05-13T08:53:01.923Z,100553
2018-05-13T08:58:05.027Z,100554
2018-05-13T09:03:08.107Z,100566
2018-05-13T09:08:11.985Z,100570
2018-05-13T09:13:15.118Z,100572
2018-05-13T09:18:19.554Z,100577
2018-05-13T09:23:23.031Z,100576
2018-05-13T09:28:26.124Z,100569
2018-05-13T09:33:29.599Z,100556
2018-05-13T09:38:33.079Z,100566
2018-05-13T09:43:36.165Z,100565
2018-05-13T09:48:39.241Z,100549
2018-05-13T09:53:42.330Z,100544
2018-05-13T09:58:49.102Z,100543
2018-05-13T10:03:52.663Z,100557
2018-05-13T10:08:55.754Z,100553
2018-05-13T10:14:00.193Z,100552
2018-05-13T10:19:04.053Z,100555
2018-05-13T10:24:07.899Z,100563
2018-05-13T10:29:10.987Z,100565
2018-05-13T10:34:14.078Z,100580
2018-05-13T10:39:17.569Z,100593
2018-05-13T10:44:21.802Z,100593
2018-05-13T10:49:25.428Z,100580
2018-05-13T10:54:29.274Z,100580
2018-05-13T10:59:32.762Z,100599
2018-05-13T11:04:36.619Z,100597
2018-05-13T11:09:40.117Z,100585
2018-05-13T11:14:43.608Z,100582
2018-05-13T11:19:47.458Z,100570
2018-05-13T11:24:50.547Z,100565
2018-05-13T11:29:55.012Z,100576
2018-05-13T11:34:58.488Z,100566
2018-05-13T11:40:01.571Z,100558
2018-05-13T11:45:04.658Z,100566
2018-05-13T11:50:08.531Z,100566
2018-05-13T11:55:11.704Z,100570
2018-05-13T12:00:14.877Z,100573
2018-05-13T12:05:19.471Z,100585
2018-05-13T12:10:23.536Z,100583
2018-05-13T12:15:27.812Z,100560
2018-05-13T12:20:31.664Z,100551
2018-05-13T12:25:34.768Z,100556
2018-05-13T12:30:37.850Z,100560
2018-05-13T12:35:40.936Z,100564
2018-05-13T12:40:44.033Z,100552
2018-05-13T12:45:47.892Z,100545
2018-05-13T12:50:52.166Z,100559
2018-05-13T12:55:56.733Z,100555
2018-05-13T13:01:00.210Z,100542
2018-05-13T13:06:03.298Z,100542
2018-05-13T13:11:06.379Z,100549
2018-05-13T13:16:10.615Z,100534
2018-05-13T13:21:14.475Z,100514
2018-05-13T13:26:17.573Z,100496
2018-05-13T13:31:21.310Z,100486
2018-05-13T13:36:25.711Z,100474
2018-05-13T13:41:28.801Z,100447
2018-05-13T13:46:33.248Z,100447
2018-05-13T13:51:37.086Z,100463
2018-05-13T13:56:40.934Z,100469
2018-05-13T14:01:44.034Z,100479
2018-05-13T14:06:47.946Z,100483
2018-05-13T14:11:51.860Z,100484
2018-05-13T14:16:55.814Z,100478
2018-05-13T14:21:59.705Z,100469
2018-05-13T14:27:04.226Z,100475
2018-05-13T14:32:07.614Z,100472
2018-05-13T14:37:10.707Z,100479
2018-05-13T14:42:15.314Z,100477
2018-05-13T14:47:18.817Z,100476
2018-05-13T14:52:22.344Z,100474
2018-05-13T14:57:26.588Z,100473
2018-05-13T15:02:31.027Z,100480
2018-05-13T15:07:34.110Z,100476
2018-05-13T15:12:37.590Z,100481
2018-05-13T15:17:40.690Z,100491
2018-05-13T15:22:43.774Z,100506
2018-05-13T15:27:46.859Z,100503
2018-05-13T15:32:50.336Z,100505
2018-05-13T15:37:53.814Z,100506
2018-05-13T15:42:57.436Z,100501
2018-05-13T15:48:01.916Z,100503
2018-05-13T15:53:05.013Z,100502
2018-05-13T15:58:08.114Z,100486
2018-05-13T16:03:11.211Z,100487
2018-05-13T16:08:14.686Z,100482
2018-05-13T16:13:18.915Z,100484
2018-05-13T16:18:22.394Z,100483
2018-05-13T16:23:25.498Z,100480
2018-05-13T16:28:29.352Z,100474
2018-05-13T16:33:32.455Z,100476
2018-05-13T16:38:35.600Z,100488
2018-05-13T16:43:38.624Z,100493
2018-05-13T16:48:43.215Z,100499
2018-05-13T16:53:46.706Z,100485
2018-05-13T16:58:50.546Z,100490
2018-05-13T17:03:53.638Z,100488
2018-05-13T17:08:56.718Z,100484
2018-05-13T17:13:59.807Z,100490
2018-05-13T17:19:03.671Z,100493
2018-05-13T17:24:07.530Z,100494
2018-05-13T17:29:10.610Z,100488
2018-05-13T17:34:14.534Z,100502
2018-05-13T17:39:17.561Z,100510
2018-05-13T17:44:22.000Z,100513
2018-05-13T17:49:26.594Z,100519
2018-05-13T17:54:31.184Z,100519
2018-05-13T17:59:34.666Z,100513
2018-05-13T18:04:39.110Z,100518
2018-05-13T18:09:42.586Z,100504
2018-05-13T18:14:46.822Z,100487
2018-05-13T18:19:50.678Z,100492
2018-05-13T18:24:53.913Z,100489
2018-05-13T18:29:56.897Z,100501
2018-05-13T18:35:01.123Z,100513
2018-05-13T18:40:05.338Z,100515
2018-05-13T18:45:08.839Z,100512
2018-05-13T18:50:13.275Z,100510
2018-05-13T18:55:16.750Z,100508
2018-05-13T19:00:21.196Z,100500
2018-05-13T19:05:25.621Z,100496
2018-05-13T19:10:28.715Z,100497
2018-05-13T19:15:32.953Z,100496
2018-05-13T19:20:37.391Z,100499
2018-05-13T19:25:40.471Z,100498
2018-05-13T19:30:43.955Z,100513
2018-05-13T19:35:47.047Z,100513
2018-05-13T19:40:50.151Z,100516
2018-05-13T19:45:53.226Z,100525
2018-05-13T19:50:57.669Z,100525
2018-05-13T19:56:02.271Z,100524
2018-05-13T20:01:06.043Z,100531
2018-05-13T20:06:10.658Z,100534
2018-05-13T20:11:15.175Z,100536
2018-05-13T20:16:18.823Z,100557
2018-05-13T20:21:22.085Z,100556
2018-05-13T20:26:25.250Z,100551
2018-05-13T20:31:30.776Z,100553
2018-05-13T20:36:33.966Z,100566
2018-05-13T20:41:37.875Z,100572
2018-05-13T20:46:41.082Z,100574
2018-05-13T20:51:45.981Z,100571
2018-05-13T20:56:49.237Z,100575
2018-05-13T21:01:52.479Z,100576
2018-05-13T21:06:56.146Z,100577
2018-05-13T21:12:02.370Z,100575
2018-05-13T21:17:05.560Z,100569
2018-05-13T21:22:09.633Z,100573
2018-05-13T21:27:12.783Z,100559
2018-05-13T21:32:17.166Z,100547
2018-05-13T21:37:20.316Z,100546
2018-05-13T21:42:24.855Z,100541
2018-05-13T21:47:28.420Z,100525
2018-05-13T21:52:32.200Z,100516
2018-05-13T21:57:37.926Z,100513
2018-05-13T22:02:41.153Z,100519
2018-05-13T22:07:44.726Z,100506
2018-05-13T22:12:47.951Z,100504
2018-05-13T22:17:51.984Z,100506
2018-05-13T22:23:03.119Z,100504
2018-05-13T22:28:07.156Z,100501
2018-05-13T22:33:10.396Z,100492
2018-05-13T22:38:13.628Z,100477
2018-05-13T22:43:16.847Z,100475
2018-05-13T22:48:21.931Z,100474
2018-05-13T22:53:25.914Z,100477
2018-05-13T22:58:29.275Z,100487
2018-05-13T23:03:35.061Z,100473
2018-05-13T23:08:39.005Z,100464
2018-05-13T23:13:43.780Z,100458
2018-05-13T23:18:47.850Z,100457
2018-05-13T23:23:52.616Z,100446
2018-05-13T23:28:56.607Z,100447
2018-05-13T23:34:00.579Z,100449
2018-05-13T23:39:03.902Z,100454
2018-05-13T23:44:08.139Z,100449
2018-05-13T23:49:12.213Z,100448
2018-05-13T23:54:21.815Z,100453
2018-05-13T23:59:25.220Z,100447
